sensor_id;sensor_type;location;lat;lon;timestamp;P1;durP1;ratioP1;P2;durP2;ratioP2
2408;SDS011;8463;48.094;7.970;2022-10-31T00:00:52;6.30;;;2.57;;
2408;SDS011;8463;48.094;7.970;2022-10-31T00:03:18;3.70;;;2.17;;
2408;SDS011;8463;48.094;7.970;2022-10-31T00:05:44;3.10;;;2.37;;
2408;SDS011;8463;48.094;7.970;2022-10-31T00:08:11;5.70;;;2.37;;
2408;SDS011;8463;48.094;7.970;2022-10-31T00:10:38;3.70;;;2.90;;
2408;SDS011;8463;48.094;7.970;2022-10-31T00:13:04;9.93;;;2.97;;
2408;SDS011;8463;48.094;7.970;2022-10-31T00:15:30;2.27;;;2.07;;
2408;SDS011;8463;48.094;7.970;2022-10-31T00:17:58;5.80;;;3.00;;
2408;SDS011;8463;48.094;7.970;2022-10-31T00:20:23;3.23;;;2.30;;
2408;SDS011;8463;48.094;7.970;2022-10-31T00:22:49;2.70;;;1.93;;
2408;SDS011;8463;48.094;7.970;2022-10-31T00:25:15;4.33;;;2.60;;
2408;SDS011;8463;48.094;7.970;2022-10-31T00:27:40;2.80;;;2.00;;
2408;SDS011;8463;48.094;7.970;2022-10-31T00:30:06;3.30;;;2.43;;
2408;SDS011;8463;48.094;7.970;2022-10-31T00:32:32;7.93;;;3.13;;
2408;SDS011;8463;48.094;7.970;2022-10-31T00:34:57;4.63;;;2.50;;
2408;SDS011;8463;48.094;7.970;2022-10-31T00:37:23;3.00;;;2.70;;
2408;SDS011;8463;48.094;7.970;2022-10-31T00:39:49;3.20;;;2.90;;
2408;SDS011;8463;48.094;7.970;2022-10-31T00:42:14;3.90;;;2.37;;
2408;SDS011;8463;48.094;7.970;2022-10-31T00:44:40;4.93;;;2.37;;
2408;SDS011;8463;48.094;7.970;2022-10-31T00:47:06;4.00;;;2.70;;
2408;SDS011;8463;48.094;7.970;2022-10-31T00:49:31;3.70;;;2.27;;
2408;SDS011;8463;48.094;7.970;2022-10-31T00:51:57;3.77;;;2.03;;
2408;SDS011;8463;48.094;7.970;2022-10-31T00:54:23;3.37;;;2.60;;
2408;SDS011;8463;48.094;7.970;2022-10-31T00:56:49;3.00;;;2.30;;
2408;SDS011;8463;48.094;7.970;2022-10-31T00:59:14;6.40;;;3.00;;
2408;SDS011;8463;48.094;7.970;2022-10-31T01:01:40;4.53;;;2.30;;
2408;SDS011;8463;48.094;7.970;2022-10-31T01:04:06;5.03;;;2.30;;
2408;SDS011;8463;48.094;7.970;2022-10-31T01:06:31;6.10;;;2.50;;
2408;SDS011;8463;48.094;7.970;2022-10-31T01:08:57;3.63;;;2.20;;
2408;SDS011;8463;48.094;7.970;2022-10-31T01:11:23;3.87;;;2.70;;
2408;SDS011;8463;48.094;7.970;2022-10-31T01:13:52;5.23;;;2.23;;
2408;SDS011;8463;48.094;7.970;2022-10-31T01:16:19;3.60;;;2.40;;
2408;SDS011;8463;48.094;7.970;2022-10-31T01:18:47;2.60;;;2.20;;
2408;SDS011;8463;48.094;7.970;2022-10-31T01:21:13;7.47;;;1.97;;
2408;SDS011;8463;48.094;7.970;2022-10-31T01:23:44;3.90;;;1.97;;
2408;SDS011;8463;48.094;7.970;2022-10-31T01:26:14;5.60;;;3.40;;
2408;SDS011;8463;48.094;7.970;2022-10-31T01:28:53;4.57;;;2.50;;
2408;SDS011;8463;48.094;7.970;2022-10-31T01:31:21;3.30;;;2.40;;
2408;SDS011;8463;48.094;7.970;2022-10-31T01:33:49;4.13;;;3.13;;
2408;SDS011;8463;48.094;7.970;2022-10-31T01:36:25;3.20;;;2.50;;
2408;SDS011;8463;48.094;7.970;2022-10-31T01:38:54;3.83;;;2.53;;
2408;SDS011;8463;48.094;7.970;2022-10-31T01:41:23;3.33;;;1.90;;
2408;SDS011;8463;48.094;7.970;2022-10-31T01:43:57;2.80;;;2.33;;
2408;SDS011;8463;48.094;7.970;2022-10-31T01:48:52;3.57;;;2.63;;
2408;SDS011;8463;48.094;7.970;2022-10-31T01:51:20;4.10;;;2.40;;
2408;SDS011;8463;48.094;7.970;2022-10-31T01:53:51;3.43;;;2.33;;
2408;SDS011;8463;48.094;7.970;2022-10-31T01:56:20;5.27;;;2.53;;
2408;SDS011;8463;48.094;7.970;2022-10-31T01:58:46;6.57;;;4.30;;
2408;SDS011;8463;48.094;7.970;2022-10-31T02:01:12;7.63;;;2.70;;
2408;SDS011;8463;48.094;7.970;2022-10-31T02:03:39;4.70;;;2.93;;
2408;SDS011;8463;48.094;7.970;2022-10-31T02:06:06;3.37;;;2.23;;
2408;SDS011;8463;48.094;7.970;2022-10-31T02:08:39;4.37;;;2.80;;
2408;SDS011;8463;48.094;7.970;2022-10-31T02:11:06;3.90;;;2.40;;
2408;SDS011;8463;48.094;7.970;2022-10-31T02:13:33;8.97;;;3.60;;
2408;SDS011;8463;48.094;7.970;2022-10-31T02:15:59;6.47;;;2.70;;
2408;SDS011;8463;48.094;7.970;2022-10-31T02:18:26;2.80;;;2.50;;
2408;SDS011;8463;48.094;7.970;2022-10-31T02:21:03;4.10;;;2.90;;
2408;SDS011;8463;48.094;7.970;2022-10-31T02:24:00;4.13;;;2.60;;
2408;SDS011;8463;48.094;7.970;2022-10-31T02:34:44;8.23;;;3.17;;
2408;SDS011;8463;48.094;7.970;2022-10-31T02:37:13;6.13;;;2.50;;
2408;SDS011;8463;48.094;7.970;2022-10-31T02:47:32;4.10;;;2.47;;
2408;SDS011;8463;48.094;7.970;2022-10-31T02:50:09;4.37;;;2.73;;
2408;SDS011;8463;48.094;7.970;2022-10-31T02:52:36;2.83;;;2.40;;
2408;SDS011;8463;48.094;7.970;2022-10-31T02:55:09;4.03;;;2.20;;
2408;SDS011;8463;48.094;7.970;2022-10-31T02:57:35;3.60;;;1.97;;
2408;SDS011;8463;48.094;7.970;2022-10-31T03:00:03;5.53;;;2.20;;
2408;SDS011;8463;48.094;7.970;2022-10-31T03:02:49;3.57;;;2.17;;
2408;SDS011;8463;48.094;7.970;2022-10-31T03:05:32;3.10;;;2.10;;
2408;SDS011;8463;48.094;7.970;2022-10-31T03:11:05;2.80;;;2.20;;
2408;SDS011;8463;48.094;7.970;2022-10-31T03:13:34;3.57;;;1.97;;
2408;SDS011;8463;48.094;7.970;2022-10-31T03:16:17;3.47;;;2.70;;
2408;SDS011;8463;48.094;7.970;2022-10-31T03:21:23;3.23;;;1.97;;
2408;SDS011;8463;48.094;7.970;2022-10-31T03:23:53;4.53;;;3.10;;
2408;SDS011;8463;48.094;7.970;2022-10-31T03:26:21;4.77;;;2.20;;
2408;SDS011;8463;48.094;7.970;2022-10-31T03:28:59;4.40;;;3.00;;
2408;SDS011;8463;48.094;7.970;2022-10-31T03:31:35;2.73;;;2.40;;
2408;SDS011;8463;48.094;7.970;2022-10-31T03:34:06;3.23;;;2.40;;
2408;SDS011;8463;48.094;7.970;2022-10-31T03:36:34;2.67;;;2.00;;
2408;SDS011;8463;48.094;7.970;2022-10-31T03:39:04;2.80;;;2.60;;
2408;SDS011;8463;48.094;7.970;2022-10-31T03:41:33;3.63;;;2.40;;
2408;SDS011;8463;48.094;7.970;2022-10-31T03:44:05;3.10;;;2.47;;
2408;SDS011;8463;48.094;7.970;2022-10-31T03:46:35;2.77;;;2.30;;
2408;SDS011;8463;48.094;7.970;2022-10-31T03:49:01;4.20;;;2.67;;
2408;SDS011;8463;48.094;7.970;2022-10-31T03:54:04;3.47;;;2.90;;
2408;SDS011;8463;48.094;7.970;2022-10-31T03:56:50;3.00;;;2.30;;
2408;SDS011;8463;48.094;7.970;2022-10-31T03:59:24;2.57;;;2.00;;
2408;SDS011;8463;48.094;7.970;2022-10-31T04:01:57;3.30;;;2.30;;
2408;SDS011;8463;48.094;7.970;2022-10-31T04:04:26;3.20;;;1.90;;
2408;SDS011;8463;48.094;7.970;2022-10-31T04:06:54;4.77;;;2.90;;
2408;SDS011;8463;48.094;7.970;2022-10-31T04:09:24;2.63;;;2.27;;
2408;SDS011;8463;48.094;7.970;2022-10-31T04:11:53;3.57;;;2.17;;
2408;SDS011;8463;48.094;7.970;2022-10-31T04:14:20;6.70;;;2.77;;
2408;SDS011;8463;48.094;7.970;2022-10-31T04:16:49;3.47;;;2.27;;
2408;SDS011;8463;48.094;7.970;2022-10-31T04:19:14;4.20;;;2.37;;
2408;SDS011;8463;48.094;7.970;2022-10-31T04:21:40;2.47;;;2.10;;
2408;SDS011;8463;48.094;7.970;2022-10-31T04:24:08;4.80;;;1.93;;
2408;SDS011;8463;48.094;7.970;2022-10-31T04:26:34;2.63;;;2.43;;
2408;SDS011;8463;48.094;7.970;2022-10-31T04:29:00;2.77;;;2.20;;
2408;SDS011;8463;48.094;7.970;2022-10-31T04:31:26;7.33;;;3.10;;
2408;SDS011;8463;48.094;7.970;2022-10-31T04:33:52;3.17;;;2.83;;
2408;SDS011;8463;48.094;7.970;2022-10-31T04:36:17;2.63;;;2.43;;
2408;SDS011;8463;48.094;7.970;2022-10-31T04:38:43;2.90;;;2.60;;
2408;SDS011;8463;48.094;7.970;2022-10-31T04:41:09;3.67;;;2.80;;
2408;SDS011;8463;48.094;7.970;2022-10-31T04:43:34;6.93;;;2.77;;
2408;SDS011;8463;48.094;7.970;2022-10-31T04:46:00;3.70;;;2.10;;
2408;SDS011;8463;48.094;7.970;2022-10-31T04:48:26;3.30;;;2.17;;
2408;SDS011;8463;48.094;7.970;2022-10-31T04:50:51;3.43;;;2.23;;
2408;SDS011;8463;48.094;7.970;2022-10-31T04:53:17;2.10;;;1.90;;
2408;SDS011;8463;48.094;7.970;2022-10-31T04:55:43;4.23;;;2.40;;
2408;SDS011;8463;48.094;7.970;2022-10-31T04:58:08;8.70;;;2.33;;
2408;SDS011;8463;48.094;7.970;2022-10-31T05:00:34;5.07;;;3.00;;
2408;SDS011;8463;48.094;7.970;2022-10-31T05:02:59;3.07;;;2.50;;
2408;SDS011;8463;48.094;7.970;2022-10-31T05:05:29;5.10;;;2.27;;
2408;SDS011;8463;48.094;7.970;2022-10-31T05:07:56;3.00;;;2.53;;
2408;SDS011;8463;48.094;7.970;2022-10-31T05:10:23;3.40;;;2.00;;
2408;SDS011;8463;48.094;7.970;2022-10-31T05:12:51;3.33;;;2.83;;
2408;SDS011;8463;48.094;7.970;2022-10-31T05:15:18;2.83;;;2.50;;
2408;SDS011;8463;48.094;7.970;2022-10-31T05:17:45;4.40;;;2.87;;
2408;SDS011;8463;48.094;7.970;2022-10-31T05:20:12;3.67;;;2.70;;
2408;SDS011;8463;48.094;7.970;2022-10-31T05:22:45;7.23;;;2.93;;
2408;SDS011;8463;48.094;7.970;2022-10-31T05:25:12;4.93;;;2.67;;
2408;SDS011;8463;48.094;7.970;2022-10-31T05:27:38;4.00;;;2.70;;
2408;SDS011;8463;48.094;7.970;2022-10-31T05:30:05;4.07;;;3.13;;
2408;SDS011;8463;48.094;7.970;2022-10-31T05:32:36;4.27;;;2.87;;
2408;SDS011;8463;48.094;7.970;2022-10-31T05:35:03;4.77;;;3.23;;
2408;SDS011;8463;48.094;7.970;2022-10-31T05:37:29;4.77;;;2.73;;
2408;SDS011;8463;48.094;7.970;2022-10-31T05:39:54;5.10;;;3.10;;
2408;SDS011;8463;48.094;7.970;2022-10-31T05:42:20;4.50;;;2.97;;
2408;SDS011;8463;48.094;7.970;2022-10-31T05:44:45;4.43;;;2.67;;
2408;SDS011;8463;48.094;7.970;2022-10-31T05:47:11;5.63;;;3.30;;
2408;SDS011;8463;48.094;7.970;2022-10-31T05:49:36;6.10;;;3.13;;
2408;SDS011;8463;48.094;7.970;2022-10-31T05:52:02;2.83;;;2.40;;
2408;SDS011;8463;48.094;7.970;2022-10-31T05:54:28;4.10;;;2.90;;
2408;SDS011;8463;48.094;7.970;2022-10-31T05:56:53;6.37;;;3.53;;
2408;SDS011;8463;48.094;7.970;2022-10-31T05:59:19;4.10;;;2.87;;
2408;SDS011;8463;48.094;7.970;2022-10-31T06:01:44;4.07;;;2.80;;
2408;SDS011;8463;48.094;7.970;2022-10-31T06:04:10;3.33;;;3.03;;
2408;SDS011;8463;48.094;7.970;2022-10-31T06:06:35;3.67;;;3.30;;
2408;SDS011;8463;48.094;7.970;2022-10-31T06:09:01;3.60;;;2.50;;
2408;SDS011;8463;48.094;7.970;2022-10-31T06:11:27;6.27;;;3.13;;
2408;SDS011;8463;48.094;7.970;2022-10-31T06:13:52;4.53;;;2.60;;
2408;SDS011;8463;48.094;7.970;2022-10-31T06:16:18;5.77;;;2.97;;
2408;SDS011;8463;48.094;7.970;2022-10-31T06:18:43;4.73;;;2.50;;
2408;SDS011;8463;48.094;7.970;2022-10-31T06:21:11;3.00;;;2.53;;
2408;SDS011;8463;48.094;7.970;2022-10-31T06:23:36;4.23;;;3.40;;
2408;SDS011;8463;48.094;7.970;2022-10-31T06:26:02;4.27;;;2.70;;
2408;SDS011;8463;48.094;7.970;2022-10-31T06:28:27;3.80;;;2.97;;
2408;SDS011;8463;48.094;7.970;2022-10-31T06:30:53;4.80;;;3.50;;
2408;SDS011;8463;48.094;7.970;2022-10-31T06:33:19;5.60;;;3.30;;
2408;SDS011;8463;48.094;7.970;2022-10-31T06:35:45;2.87;;;2.57;;
2408;SDS011;8463;48.094;7.970;2022-10-31T06:38:11;4.97;;;3.00;;
2408;SDS011;8463;48.094;7.970;2022-10-31T06:40:37;3.73;;;3.00;;
2408;SDS011;8463;48.094;7.970;2022-10-31T06:43:03;4.10;;;2.60;;
2408;SDS011;8463;48.094;7.970;2022-10-31T06:45:28;4.47;;;3.00;;
2408;SDS011;8463;48.094;7.970;2022-10-31T06:47:54;6.03;;;3.03;;
2408;SDS011;8463;48.094;7.970;2022-10-31T06:50:21;8.80;;;3.47;;
2408;SDS011;8463;48.094;7.970;2022-10-31T06:52:54;4.67;;;3.10;;
2408;SDS011;8463;48.094;7.970;2022-10-31T06:55:22;5.77;;;3.20;;
2408;SDS011;8463;48.094;7.970;2022-10-31T07:00:18;3.03;;;2.67;;
2408;SDS011;8463;48.094;7.970;2022-10-31T07:02:52;6.60;;;3.30;;
2408;SDS011;8463;48.094;7.970;2022-10-31T07:05:22;3.30;;;2.93;;
2408;SDS011;8463;48.094;7.970;2022-10-31T07:07:51;5.77;;;3.87;;
2408;SDS011;8463;48.094;7.970;2022-10-31T07:10:18;5.70;;;4.40;;
2408;SDS011;8463;48.094;7.970;2022-10-31T07:12:44;3.63;;;3.23;;
2408;SDS011;8463;48.094;7.970;2022-10-31T07:15:10;5.50;;;3.03;;
2408;SDS011;8463;48.094;7.970;2022-10-31T07:17:35;3.20;;;2.90;;
2408;SDS011;8463;48.094;7.970;2022-10-31T07:20:01;6.30;;;3.67;;
2408;SDS011;8463;48.094;7.970;2022-10-31T07:22:36;5.63;;;4.70;;
2408;SDS011;8463;48.094;7.970;2022-10-31T07:25:02;5.43;;;3.73;;
2408;SDS011;8463;48.094;7.970;2022-10-31T07:27:28;3.77;;;3.33;;
2408;SDS011;8463;48.094;7.970;2022-10-31T07:30:00;3.80;;;3.17;;
2408;SDS011;8463;48.094;7.970;2022-10-31T07:32:25;7.90;;;3.93;;
2408;SDS011;8463;48.094;7.970;2022-10-31T07:34:51;3.60;;;2.83;;
2408;SDS011;8463;48.094;7.970;2022-10-31T07:37:16;3.63;;;2.83;;
2408;SDS011;8463;48.094;7.970;2022-10-31T07:39:42;5.60;;;2.97;;
2408;SDS011;8463;48.094;7.970;2022-10-31T07:42:07;5.27;;;3.60;;
2408;SDS011;8463;48.094;7.970;2022-10-31T07:44:33;4.20;;;3.03;;
2408;SDS011;8463;48.094;7.970;2022-10-31T07:46:59;4.33;;;3.50;;
2408;SDS011;8463;48.094;7.970;2022-10-31T07:49:24;4.73;;;3.60;;
2408;SDS011;8463;48.094;7.970;2022-10-31T07:51:50;5.70;;;3.87;;
2408;SDS011;8463;48.094;7.970;2022-10-31T07:54:16;3.47;;;2.90;;
2408;SDS011;8463;48.094;7.970;2022-10-31T07:56:41;6.27;;;3.57;;
2408;SDS011;8463;48.094;7.970;2022-10-31T07:59:07;5.93;;;3.77;;
2408;SDS011;8463;48.094;7.970;2022-10-31T08:01:32;7.53;;;3.40;;
2408;SDS011;8463;48.094;7.970;2022-10-31T08:03:58;3.43;;;3.00;;
2408;SDS011;8463;48.094;7.970;2022-10-31T08:06:23;3.70;;;2.90;;
2408;SDS011;8463;48.094;7.970;2022-10-31T08:08:49;4.50;;;3.43;;
2408;SDS011;8463;48.094;7.970;2022-10-31T08:11:15;7.03;;;3.97;;
2408;SDS011;8463;48.094;7.970;2022-10-31T08:13:40;5.70;;;3.43;;
2408;SDS011;8463;48.094;7.970;2022-10-31T08:16:07;3.97;;;3.67;;
2408;SDS011;8463;48.094;7.970;2022-10-31T08:18:33;5.97;;;4.00;;
2408;SDS011;8463;48.094;7.970;2022-10-31T08:20:58;4.77;;;4.00;;
2408;SDS011;8463;48.094;7.970;2022-10-31T08:23:24;6.07;;;4.10;;
2408;SDS011;8463;48.094;7.970;2022-10-31T08:25:50;8.47;;;4.73;;
2408;SDS011;8463;48.094;7.970;2022-10-31T08:28:15;4.10;;;3.70;;
2408;SDS011;8463;48.094;7.970;2022-10-31T08:30:41;4.30;;;3.83;;
2408;SDS011;8463;48.094;7.970;2022-10-31T08:33:14;6.27;;;4.00;;
2408;SDS011;8463;48.094;7.970;2022-10-31T08:35:42;6.90;;;4.13;;
2408;SDS011;8463;48.094;7.970;2022-10-31T08:38:08;6.80;;;4.30;;
2408;SDS011;8463;48.094;7.970;2022-10-31T08:40:35;5.03;;;4.10;;
2408;SDS011;8463;48.094;7.970;2022-10-31T08:43:05;4.70;;;4.20;;
2408;SDS011;8463;48.094;7.970;2022-10-31T08:45:35;9.57;;;4.40;;
2408;SDS011;8463;48.094;7.970;2022-10-31T08:48:02;8.93;;;4.40;;
2408;SDS011;8463;48.094;7.970;2022-10-31T08:50:29;8.33;;;5.50;;
2408;SDS011;8463;48.094;7.970;2022-10-31T08:53:03;7.53;;;4.77;;
2408;SDS011;8463;48.094;7.970;2022-10-31T08:55:34;5.90;;;4.73;;
2408;SDS011;8463;48.094;7.970;2022-10-31T08:58:01;8.10;;;5.60;;
2408;SDS011;8463;48.094;7.970;2022-10-31T09:00:28;6.57;;;3.60;;
2408;SDS011;8463;48.094;7.970;2022-10-31T09:02:57;7.60;;;5.50;;
2408;SDS011;8463;48.094;7.970;2022-10-31T09:05:24;7.40;;;5.60;;
2408;SDS011;8463;48.094;7.970;2022-10-31T09:07:52;5.80;;;5.13;;
2408;SDS011;8463;48.094;7.970;2022-10-31T09:10:21;5.80;;;3.93;;
2408;SDS011;8463;48.094;7.970;2022-10-31T09:12:46;7.63;;;5.70;;
2408;SDS011;8463;48.094;7.970;2022-10-31T09:15:12;6.67;;;4.50;;
2408;SDS011;8463;48.094;7.970;2022-10-31T09:17:37;6.07;;;4.20;;
2408;SDS011;8463;48.094;7.970;2022-10-31T09:20:03;4.40;;;3.10;;
2408;SDS011;8463;48.094;7.970;2022-10-31T09:22:29;5.10;;;3.53;;
2408;SDS011;8463;48.094;7.970;2022-10-31T09:24:55;4.20;;;3.23;;
2408;SDS011;8463;48.094;7.970;2022-10-31T09:27:20;6.43;;;3.30;;
2408;SDS011;8463;48.094;7.970;2022-10-31T09:29:46;4.87;;;3.80;;
2408;SDS011;8463;48.094;7.970;2022-10-31T09:32:11;4.67;;;3.40;;
2408;SDS011;8463;48.094;7.970;2022-10-31T09:34:37;6.17;;;3.77;;
2408;SDS011;8463;48.094;7.970;2022-10-31T09:37:02;5.10;;;3.60;;
2408;SDS011;8463;48.094;7.970;2022-10-31T09:39:28;6.33;;;3.90;;
2408;SDS011;8463;48.094;7.970;2022-10-31T09:42:00;6.23;;;4.37;;
2408;SDS011;8463;48.094;7.970;2022-10-31T09:47:37;4.53;;;3.13;;
2408;SDS011;8463;48.094;7.970;2022-10-31T09:50:13;5.90;;;3.57;;
2408;SDS011;8463;48.094;7.970;2022-10-31T09:55:52;5.53;;;3.80;;
2408;SDS011;8463;48.094;7.970;2022-10-31T09:58:20;6.03;;;3.80;;
2408;SDS011;8463;48.094;7.970;2022-10-31T10:00:51;5.30;;;3.57;;
2408;SDS011;8463;48.094;7.970;2022-10-31T10:03:35;6.07;;;3.37;;
2408;SDS011;8463;48.094;7.970;2022-10-31T10:06:10;3.70;;;2.97;;
2408;SDS011;8463;48.094;7.970;2022-10-31T10:08:41;5.43;;;3.80;;
2408;SDS011;8463;48.094;7.970;2022-10-31T10:22:19;5.20;;;3.40;;
2408;SDS011;8463;48.094;7.970;2022-10-31T10:30:16;6.37;;;3.80;;
2408;SDS011;8463;48.094;7.970;2022-10-31T10:32:51;5.13;;;3.87;;
2408;SDS011;8463;48.094;7.970;2022-10-31T10:35:25;6.57;;;4.10;;
2408;SDS011;8463;48.094;7.970;2022-10-31T10:41:10;6.10;;;4.00;;
2408;SDS011;8463;48.094;7.970;2022-10-31T10:43:40;8.50;;;4.53;;
2408;SDS011;8463;48.094;7.970;2022-10-31T10:46:16;5.83;;;3.63;;
2408;SDS011;8463;48.094;7.970;2022-10-31T10:57:22;4.93;;;4.13;;
2408;SDS011;8463;48.094;7.970;2022-10-31T10:59:59;5.60;;;4.77;;
2408;SDS011;8463;48.094;7.970;2022-10-31T11:02:31;6.20;;;4.10;;
2408;SDS011;8463;48.094;7.970;2022-10-31T11:04:58;7.87;;;4.47;;
2408;SDS011;8463;48.094;7.970;2022-10-31T11:07:36;5.47;;;3.87;;
2408;SDS011;8463;48.094;7.970;2022-10-31T11:10:05;8.30;;;4.57;;
2408;SDS011;8463;48.094;7.970;2022-10-31T11:12:39;9.43;;;4.67;;
2408;SDS011;8463;48.094;7.970;2022-10-31T11:15:16;5.50;;;4.00;;
2408;SDS011;8463;48.094;7.970;2022-10-31T11:17:47;5.17;;;4.67;;
2408;SDS011;8463;48.094;7.970;2022-10-31T11:22:41;5.60;;;4.67;;
2408;SDS011;8463;48.094;7.970;2022-10-31T11:27:47;7.30;;;5.23;;
2408;SDS011;8463;48.094;7.970;2022-10-31T11:30:24;5.80;;;4.90;;
2408;SDS011;8463;48.094;7.970;2022-10-31T11:32:50;8.00;;;4.20;;
2408;SDS011;8463;48.094;7.970;2022-10-31T11:35:17;11.63;;;5.30;;
2408;SDS011;8463;48.094;7.970;2022-10-31T11:37:46;4.77;;;4.30;;
2408;SDS011;8463;48.094;7.970;2022-10-31T11:40:15;7.47;;;4.00;;
2408;SDS011;8463;48.094;7.970;2022-10-31T11:42:43;5.93;;;3.77;;
2408;SDS011;8463;48.094;7.970;2022-10-31T11:45:17;9.63;;;4.00;;
2408;SDS011;8463;48.094;7.970;2022-10-31T11:47:59;4.60;;;4.20;;
2408;SDS011;8463;48.094;7.970;2022-10-31T11:50:28;6.33;;;3.70;;
2408;SDS011;8463;48.094;7.970;2022-10-31T11:52:55;8.50;;;4.73;;
2408;SDS011;8463;48.094;7.970;2022-10-31T11:55:37;6.33;;;3.93;;
2408;SDS011;8463;48.094;7.970;2022-10-31T11:58:03;4.97;;;4.10;;
2408;SDS011;8463;48.094;7.970;2022-10-31T12:00:30;7.20;;;3.77;;
2408;SDS011;8463;48.094;7.970;2022-10-31T12:03:04;4.90;;;3.50;;
2408;SDS011;8463;48.094;7.970;2022-10-31T12:05:39;5.20;;;3.00;;
2408;SDS011;8463;48.094;7.970;2022-10-31T12:08:09;4.73;;;3.13;;
2408;SDS011;8463;48.094;7.970;2022-10-31T12:10:41;7.50;;;3.27;;
2408;SDS011;8463;48.094;7.970;2022-10-31T12:16:12;4.10;;;2.80;;
2408;SDS011;8463;48.094;7.970;2022-10-31T12:18:50;5.40;;;3.80;;
2408;SDS011;8463;48.094;7.970;2022-10-31T12:24:37;5.00;;;3.70;;
2408;SDS011;8463;48.094;7.970;2022-10-31T12:27:19;3.37;;;2.70;;
2408;SDS011;8463;48.094;7.970;2022-10-31T12:30:16;3.50;;;2.57;;
2408;SDS011;8463;48.094;7.970;2022-10-31T12:41:32;3.50;;;3.20;;
2408;SDS011;8463;48.094;7.970;2022-10-31T12:44:42;5.07;;;3.30;;
2408;SDS011;8463;48.094;7.970;2022-10-31T12:55:31;3.10;;;2.50;;
2408;SDS011;8463;48.094;7.970;2022-10-31T13:00:53;4.43;;;2.50;;
2408;SDS011;8463;48.094;7.970;2022-10-31T13:03:48;3.97;;;2.60;;
2408;SDS011;8463;48.094;7.970;2022-10-31T13:06:24;3.33;;;3.00;;
2408;SDS011;8463;48.094;7.970;2022-10-31T13:08:58;3.40;;;2.60;;
2408;SDS011;8463;48.094;7.970;2022-10-31T13:14:10;6.80;;;2.70;;
2408;SDS011;8463;48.094;7.970;2022-10-31T13:16:46;2.87;;;2.60;;
2408;SDS011;8463;48.094;7.970;2022-10-31T13:19:17;6.40;;;4.17;;
2408;SDS011;8463;48.094;7.970;2022-10-31T13:22:10;3.20;;;2.90;;
2408;SDS011;8463;48.094;7.970;2022-10-31T13:30:38;4.30;;;3.40;;
2408;SDS011;8463;48.094;7.970;2022-10-31T13:44:11;6.20;;;5.13;;
2408;SDS011;8463;48.094;7.970;2022-10-31T13:46:51;13.63;;;5.80;;
2408;SDS011;8463;48.094;7.970;2022-10-31T13:49:25;5.07;;;3.90;;
2408;SDS011;8463;48.094;7.970;2022-10-31T13:51:51;5.70;;;4.50;;
2408;SDS011;8463;48.094;7.970;2022-10-31T13:54:24;5.13;;;4.20;;
2408;SDS011;8463;48.094;7.970;2022-10-31T13:56:57;6.27;;;3.87;;
2408;SDS011;8463;48.094;7.970;2022-10-31T13:59:24;6.03;;;4.90;;
2408;SDS011;8463;48.094;7.970;2022-10-31T14:01:56;8.60;;;4.70;;
2408;SDS011;8463;48.094;7.970;2022-10-31T14:04:30;5.70;;;4.27;;
2408;SDS011;8463;48.094;7.970;2022-10-31T14:07:12;5.60;;;4.00;;
2408;SDS011;8463;48.094;7.970;2022-10-31T14:12:27;7.90;;;5.83;;
2408;SDS011;8463;48.094;7.970;2022-10-31T14:15:20;8.00;;;4.37;;
2408;SDS011;8463;48.094;7.970;2022-10-31T14:17:53;6.03;;;4.30;;
2408;SDS011;8463;48.094;7.970;2022-10-31T14:20:22;7.67;;;4.47;;
2408;SDS011;8463;48.094;7.970;2022-10-31T14:28:51;7.73;;;3.73;;
2408;SDS011;8463;48.094;7.970;2022-10-31T14:31:37;6.63;;;4.07;;
2408;SDS011;8463;48.094;7.970;2022-10-31T14:37:14;6.57;;;4.97;;
2408;SDS011;8463;48.094;7.970;2022-10-31T14:53:22;9.13;;;4.73;;
2408;SDS011;8463;48.094;7.970;2022-10-31T14:55:52;5.27;;;4.77;;
2408;SDS011;8463;48.094;7.970;2022-10-31T15:01:02;7.73;;;5.40;;
2408;SDS011;8463;48.094;7.970;2022-10-31T15:05:58;16.40;;;4.73;;
2408;SDS011;8463;48.094;7.970;2022-10-31T15:11:42;5.90;;;4.70;;
2408;SDS011;8463;48.094;7.970;2022-10-31T15:13:51;8.77;;;6.27;;
2408;SDS011;8463;48.094;7.970;2022-10-31T15:16:23;10.50;;;5.00;;
2408;SDS011;8463;48.094;7.970;2022-10-31T15:18:52;6.50;;;5.63;;
2408;SDS011;8463;48.094;7.970;2022-10-31T15:21:23;9.63;;;7.30;;
2408;SDS011;8463;48.094;7.970;2022-10-31T15:23:53;11.50;;;5.60;;
2408;SDS011;8463;48.094;7.970;2022-10-31T15:26:26;8.20;;;5.53;;
2408;SDS011;8463;48.094;7.970;2022-10-31T15:29:05;8.97;;;5.00;;
2408;SDS011;8463;48.094;7.970;2022-10-31T15:31:52;9.80;;;6.43;;
2408;SDS011;8463;48.094;7.970;2022-10-31T15:34:37;7.60;;;6.07;;
2408;SDS011;8463;48.094;7.970;2022-10-31T15:37:12;7.10;;;5.73;;
2408;SDS011;8463;48.094;7.970;2022-10-31T15:39:42;8.53;;;5.33;;
2408;SDS011;8463;48.094;7.970;2022-10-31T15:44:56;11.40;;;8.30;;
2408;SDS011;8463;48.094;7.970;2022-10-31T15:47:23;9.57;;;6.80;;
2408;SDS011;8463;48.094;7.970;2022-10-31T15:49:59;13.83;;;7.50;;
2408;SDS011;8463;48.094;7.970;2022-10-31T15:52:42;17.83;;;9.03;;
2408;SDS011;8463;48.094;7.970;2022-10-31T15:55:16;14.10;;;8.03;;
2408;SDS011;8463;48.094;7.970;2022-10-31T15:57:49;11.10;;;7.37;;
2408;SDS011;8463;48.094;7.970;2022-10-31T16:00:24;12.67;;;8.03;;
2408;SDS011;8463;48.094;7.970;2022-10-31T16:03:08;17.30;;;9.70;;
2408;SDS011;8463;48.094;7.970;2022-10-31T16:05:49;25.27;;;10.10;;
2408;SDS011;8463;48.094;7.970;2022-10-31T16:10:51;21.23;;;8.70;;
2408;SDS011;8463;48.094;7.970;2022-10-31T16:13:17;22.30;;;9.40;;
2408;SDS011;8463;48.094;7.970;2022-10-31T16:15:51;13.57;;;8.57;;
2408;SDS011;8463;48.094;7.970;2022-10-31T16:18:19;10.53;;;8.17;;
2408;SDS011;8463;48.094;7.970;2022-10-31T16:20:49;11.60;;;8.90;;
2408;SDS011;8463;48.094;7.970;2022-10-31T16:23:17;16.33;;;9.43;;
2408;SDS011;8463;48.094;7.970;2022-10-31T16:25:44;11.23;;;7.80;;
2408;SDS011;8463;48.094;7.970;2022-10-31T16:28:15;10.33;;;7.60;;
2408;SDS011;8463;48.094;7.970;2022-10-31T16:30:55;12.20;;;7.97;;
2408;SDS011;8463;48.094;7.970;2022-10-31T16:33:28;13.67;;;8.47;;
2408;SDS011;8463;48.094;7.970;2022-10-31T16:38:53;11.40;;;8.20;;
2408;SDS011;8463;48.094;7.970;2022-10-31T16:41:28;11.47;;;8.40;;
2408;SDS011;8463;48.094;7.970;2022-10-31T16:43:53;10.10;;;7.43;;
2408;SDS011;8463;48.094;7.970;2022-10-31T16:46:23;7.83;;;7.00;;
2408;SDS011;8463;48.094;7.970;2022-10-31T16:48:52;15.23;;;9.17;;
2408;SDS011;8463;48.094;7.970;2022-10-31T16:51:18;12.00;;;8.00;;
2408;SDS011;8463;48.094;7.970;2022-10-31T16:53:44;11.63;;;7.87;;
2408;SDS011;8463;48.094;7.970;2022-10-31T16:56:14;8.60;;;7.77;;
2408;SDS011;8463;48.094;7.970;2022-10-31T16:58:43;12.80;;;7.90;;
2408;SDS011;8463;48.094;7.970;2022-10-31T17:01:09;11.30;;;8.10;;
2408;SDS011;8463;48.094;7.970;2022-10-31T17:03:37;9.00;;;7.13;;
2408;SDS011;8463;48.094;7.970;2022-10-31T17:06:03;7.77;;;6.13;;
2408;SDS011;8463;48.094;7.970;2022-10-31T17:08:29;10.00;;;6.93;;
2408;SDS011;8463;48.094;7.970;2022-10-31T17:10:55;7.30;;;6.47;;
2408;SDS011;8463;48.094;7.970;2022-10-31T17:13:23;8.60;;;7.77;;
2408;SDS011;8463;48.094;7.970;2022-10-31T17:15:53;9.83;;;7.23;;
2408;SDS011;8463;48.094;7.970;2022-10-31T17:18:20;15.07;;;9.50;;
2408;SDS011;8463;48.094;7.970;2022-10-31T17:20:46;8.60;;;6.60;;
2408;SDS011;8463;48.094;7.970;2022-10-31T17:23:13;9.73;;;6.80;;
2408;SDS011;8463;48.094;7.970;2022-10-31T17:25:40;8.00;;;6.80;;
2408;SDS011;8463;48.094;7.970;2022-10-31T17:28:06;8.30;;;6.83;;
2408;SDS011;8463;48.094;7.970;2022-10-31T17:30:36;9.17;;;5.80;;
2408;SDS011;8463;48.094;7.970;2022-10-31T17:33:02;7.40;;;5.37;;
2408;SDS011;8463;48.094;7.970;2022-10-31T17:35:28;7.40;;;5.03;;
2408;SDS011;8463;48.094;7.970;2022-10-31T17:37:53;11.60;;;6.60;;
2408;SDS011;8463;48.094;7.970;2022-10-31T17:40:20;11.67;;;7.10;;
2408;SDS011;8463;48.094;7.970;2022-10-31T17:42:53;9.50;;;7.53;;
2408;SDS011;8463;48.094;7.970;2022-10-31T17:45:21;11.90;;;6.80;;
2408;SDS011;8463;48.094;7.970;2022-10-31T17:47:47;10.60;;;6.20;;
2408;SDS011;8463;48.094;7.970;2022-10-31T17:50:15;7.33;;;5.90;;
2408;SDS011;8463;48.094;7.970;2022-10-31T17:52:41;6.53;;;5.83;;
2408;SDS011;8463;48.094;7.970;2022-10-31T17:55:07;8.60;;;7.63;;
2408;SDS011;8463;48.094;7.970;2022-10-31T17:57:34;16.80;;;12.37;;
2408;SDS011;8463;48.094;7.970;2022-10-31T18:00:01;8.93;;;7.80;;
2408;SDS011;8463;48.094;7.970;2022-10-31T18:02:28;12.83;;;7.60;;
2408;SDS011;8463;48.094;7.970;2022-10-31T18:04:53;8.93;;;7.27;;